sensor_id;sensor_type;location;lat;lon;timestamp;P1;durP1;ratioP1;P2;durP2;ratioP2
42518;SDS011;28147;47.520;18.920;2023-07-20T00:02:13;3.58;;;1.73;;
42518;SDS011;28147;47.520;18.920;2023-07-20T00:04:39;3.72;;;1.80;;
42518;SDS011;28147;47.520;18.920;2023-07-20T00:07:04;3.22;;;1.48;;
42518;SDS011;28147;47.520;18.920;2023-07-20T00:09:30;3.50;;;2.00;;
42518;SDS011;28147;47.520;18.920;2023-07-20T00:11:56;4.43;;;1.75;;
42518;SDS011;28147;47.520;18.920;2023-07-20T00:14:21;4.50;;;1.90;;
42518;SDS011;28147;47.520;18.920;2023-07-20T00:16:47;5.97;;;2.55;;
42518;SDS011;28147;47.520;18.920;2023-07-20T00:19:21;3.60;;;2.13;;
42518;SDS011;28147;47.520;18.920;2023-07-20T00:21:52;4.95;;;1.88;;
42518;SDS011;28147;47.520;18.920;2023-07-20T00:24:18;10.77;;;1.98;;
42518;SDS011;28147;47.520;18.920;2023-07-20T00:26:43;6.00;;;2.00;;
42518;SDS011;28147;47.520;18.920;2023-07-20T00:29:09;4.22;;;2.13;;
42518;SDS011;28147;47.520;18.920;2023-07-20T00:31:35;3.85;;;1.83;;
42518;SDS011;28147;47.520;18.920;2023-07-20T00:34:02;3.85;;;1.83;;
42518;SDS011;28147;47.520;18.920;2023-07-20T00:36:28;5.20;;;2.22;;
42518;SDS011;28147;47.520;18.920;2023-07-20T00:38:53;4.80;;;2.05;;
42518;SDS011;28147;47.520;18.920;2023-07-20T00:41:19;3.90;;;1.70;;
42518;SDS011;28147;47.520;18.920;2023-07-20T00:43:44;3.83;;;2.00;;
42518;SDS011;28147;47.520;18.920;2023-07-20T00:46:10;5.60;;;2.35;;
42518;SDS011;28147;47.520;18.920;2023-07-20T00:48:35;5.63;;;1.83;;
42518;SDS011;28147;47.520;18.920;2023-07-20T00:51:01;6.20;;;2.30;;
42518;SDS011;28147;47.520;18.920;2023-07-20T00:53:27;4.38;;;2.08;;
42518;SDS011;28147;47.520;18.920;2023-07-20T00:55:53;3.53;;;1.90;;
42518;SDS011;28147;47.520;18.920;2023-07-20T00:58:19;5.78;;;2.53;;
42518;SDS011;28147;47.520;18.920;2023-07-20T01:00:45;3.65;;;1.80;;
42518;SDS011;28147;47.520;18.920;2023-07-20T01:03:11;6.10;;;2.25;;
42518;SDS011;28147;47.520;18.920;2023-07-20T01:08:25;4.82;;;1.77;;
42518;SDS011;28147;47.520;18.920;2023-07-20T01:11:06;5.82;;;2.03;;
42518;SDS011;28147;47.520;18.920;2023-07-20T01:13:38;3.88;;;2.08;;
42518;SDS011;28147;47.520;18.920;2023-07-20T01:16:04;5.72;;;1.88;;
42518;SDS011;28147;47.520;18.920;2023-07-20T01:18:30;5.78;;;1.98;;
42518;SDS011;28147;47.520;18.920;2023-07-20T01:20:57;4.28;;;1.88;;
42518;SDS011;28147;47.520;18.920;2023-07-20T01:28:56;5.15;;;2.17;;
42518;SDS011;28147;47.520;18.920;2023-07-20T01:31:32;4.45;;;2.10;;
42518;SDS011;28147;47.520;18.920;2023-07-20T01:34:00;3.75;;;1.85;;
42518;SDS011;28147;47.520;18.920;2023-07-20T01:36:30;3.97;;;2.20;;
42518;SDS011;28147;47.520;18.920;2023-07-20T01:38:59;8.32;;;1.98;;
42518;SDS011;28147;47.520;18.920;2023-07-20T01:41:25;4.05;;;2.03;;
42518;SDS011;28147;47.520;18.920;2023-07-20T01:43:50;4.22;;;2.30;;
42518;SDS011;28147;47.520;18.920;2023-07-20T01:46:16;3.90;;;1.77;;
42518;SDS011;28147;47.520;18.920;2023-07-20T01:48:41;5.53;;;2.40;;
42518;SDS011;28147;47.520;18.920;2023-07-20T01:51:07;3.78;;;2.00;;
42518;SDS011;28147;47.520;18.920;2023-07-20T01:53:32;6.10;;;2.20;;
42518;SDS011;28147;47.520;18.920;2023-07-20T01:55:58;5.28;;;2.00;;
42518;SDS011;28147;47.520;18.920;2023-07-20T01:58:23;4.32;;;2.10;;
42518;SDS011;28147;47.520;18.920;2023-07-20T02:00:49;2.75;;;1.95;;
42518;SDS011;28147;47.520;18.920;2023-07-20T02:03:15;4.07;;;2.25;;
42518;SDS011;28147;47.520;18.920;2023-07-20T02:05:43;4.72;;;1.85;;
42518;SDS011;28147;47.520;18.920;2023-07-20T02:08:09;4.30;;;2.13;;
42518;SDS011;28147;47.520;18.920;2023-07-20T02:10:34;5.85;;;2.55;;
42518;SDS011;28147;47.520;18.920;2023-07-20T02:13:00;6.32;;;2.13;;
42518;SDS011;28147;47.520;18.920;2023-07-20T02:15:26;3.53;;;1.73;;
42518;SDS011;28147;47.520;18.920;2023-07-20T02:17:52;3.92;;;2.00;;
42518;SDS011;28147;47.520;18.920;2023-07-20T02:20:18;4.43;;;1.80;;
42518;SDS011;28147;47.520;18.920;2023-07-20T02:22:44;4.90;;;2.40;;
42518;SDS011;28147;47.520;18.920;2023-07-20T02:25:09;4.03;;;2.00;;
42518;SDS011;28147;47.520;18.920;2023-07-20T02:27:35;5.93;;;2.20;;
42518;SDS011;28147;47.520;18.920;2023-07-20T02:30:02;4.30;;;2.40;;
42518;SDS011;28147;47.520;18.920;2023-07-20T02:32:28;3.75;;;1.55;;
42518;SDS011;28147;47.520;18.920;2023-07-20T02:34:53;3.40;;;1.85;;
42518;SDS011;28147;47.520;18.920;2023-07-20T02:37:19;4.57;;;1.70;;
42518;SDS011;28147;47.520;18.920;2023-07-20T02:39:44;4.60;;;2.00;;
42518;SDS011;28147;47.520;18.920;2023-07-20T02:42:10;4.18;;;2.33;;
42518;SDS011;28147;47.520;18.920;2023-07-20T02:44:35;5.28;;;2.08;;
42518;SDS011;28147;47.520;18.920;2023-07-20T02:47:00;5.60;;;2.15;;
42518;SDS011;28147;47.520;18.920;2023-07-20T02:49:26;4.00;;;1.90;;
42518;SDS011;28147;47.520;18.920;2023-07-20T02:51:52;4.90;;;2.05;;
42518;SDS011;28147;47.520;18.920;2023-07-20T02:54:17;8.43;;;1.73;;
42518;SDS011;28147;47.520;18.920;2023-07-20T02:56:43;5.10;;;2.28;;
42518;SDS011;28147;47.520;18.920;2023-07-20T02:59:08;6.43;;;2.10;;
42518;SDS011;28147;47.520;18.920;2023-07-20T03:01:34;4.20;;;1.67;;
42518;SDS011;28147;47.520;18.920;2023-07-20T03:04:00;5.22;;;2.38;;
42518;SDS011;28147;47.520;18.920;2023-07-20T03:06:27;4.35;;;2.25;;
42518;SDS011;28147;47.520;18.920;2023-07-20T03:08:52;4.82;;;2.10;;
42518;SDS011;28147;47.520;18.920;2023-07-20T03:11:18;3.85;;;2.13;;
42518;SDS011;28147;47.520;18.920;2023-07-20T03:13:45;3.88;;;2.10;;
42518;SDS011;28147;47.520;18.920;2023-07-20T03:16:12;4.45;;;2.00;;
42518;SDS011;28147;47.520;18.920;2023-07-20T03:18:41;5.93;;;2.20;;
42518;SDS011;28147;47.520;18.920;2023-07-20T03:21:07;6.13;;;2.10;;
42518;SDS011;28147;47.520;18.920;2023-07-20T03:23:33;5.15;;;2.17;;
42518;SDS011;28147;47.520;18.920;2023-07-20T03:25:59;3.67;;;1.90;;
42518;SDS011;28147;47.520;18.920;2023-07-20T03:28:25;5.75;;;2.45;;
42518;SDS011;28147;47.520;18.920;2023-07-20T03:30:54;4.13;;;1.75;;
42518;SDS011;28147;47.520;18.920;2023-07-20T03:33:24;5.80;;;2.25;;
42518;SDS011;28147;47.520;18.920;2023-07-20T03:35:51;4.07;;;1.90;;
42518;SDS011;28147;47.520;18.920;2023-07-20T03:38:17;3.47;;;1.90;;
42518;SDS011;28147;47.520;18.920;2023-07-20T03:40:50;6.72;;;1.95;;
42518;SDS011;28147;47.520;18.920;2023-07-20T03:43:22;5.80;;;2.10;;
42518;SDS011;28147;47.520;18.920;2023-07-20T03:45:48;4.43;;;2.10;;
42518;SDS011;28147;47.520;18.920;2023-07-20T03:48:21;4.05;;;1.98;;
42518;SDS011;28147;47.520;18.920;2023-07-20T03:50:48;5.55;;;1.80;;
42518;SDS011;28147;47.520;18.920;2023-07-20T03:53:15;7.88;;;2.30;;
42518;SDS011;28147;47.520;18.920;2023-07-20T03:55:41;4.35;;;2.17;;
42518;SDS011;28147;47.520;18.920;2023-07-20T03:58:09;5.65;;;2.00;;
42518;SDS011;28147;47.520;18.920;2023-07-20T04:00:35;3.22;;;1.80;;
42518;SDS011;28147;47.520;18.920;2023-07-20T04:03:00;5.28;;;1.98;;
42518;SDS011;28147;47.520;18.920;2023-07-20T04:05:26;3.88;;;2.05;;
42518;SDS011;28147;47.520;18.920;2023-07-20T04:07:51;2.95;;;1.67;;
42518;SDS011;28147;47.520;18.920;2023-07-20T04:10:17;3.38;;;1.92;;
42518;SDS011;28147;47.520;18.920;2023-07-20T04:12:44;4.85;;;1.90;;
42518;SDS011;28147;47.520;18.920;2023-07-20T04:15:09;7.13;;;1.80;;
42518;SDS011;28147;47.520;18.920;2023-07-20T04:17:35;4.18;;;2.15;;
42518;SDS011;28147;47.520;18.920;2023-07-20T04:20:00;4.82;;;1.75;;
42518;SDS011;28147;47.520;18.920;2023-07-20T04:22:26;3.40;;;1.85;;
42518;SDS011;28147;47.520;18.920;2023-07-20T04:24:52;4.18;;;1.85;;
42518;SDS011;28147;47.520;18.920;2023-07-20T04:27:17;5.60;;;2.08;;
42518;SDS011;28147;47.520;18.920;2023-07-20T04:29:43;4.45;;;2.03;;
42518;SDS011;28147;47.520;18.920;2023-07-20T04:32:08;3.45;;;1.85;;
42518;SDS011;28147;47.520;18.920;2023-07-20T04:34:34;4.03;;;1.85;;
42518;SDS011;28147;47.520;18.920;2023-07-20T04:37:02;4.40;;;1.77;;
42518;SDS011;28147;47.520;18.920;2023-07-20T04:39:28;5.15;;;1.92;;
42518;SDS011;28147;47.520;18.920;2023-07-20T04:41:53;3.47;;;1.90;;
42518;SDS011;28147;47.520;18.920;2023-07-20T04:44:19;5.55;;;2.13;;
42518;SDS011;28147;47.520;18.920;2023-07-20T04:46:44;3.33;;;1.73;;
42518;SDS011;28147;47.520;18.920;2023-07-20T04:49:10;4.05;;;2.00;;
42518;SDS011;28147;47.520;18.920;2023-07-20T04:51:37;3.90;;;1.92;;
42518;SDS011;28147;47.520;18.920;2023-07-20T04:54:03;4.28;;;2.13;;
42518;SDS011;28147;47.520;18.920;2023-07-20T04:56:28;4.47;;;2.10;;
42518;SDS011;28147;47.520;18.920;2023-07-20T04:58:54;5.68;;;3.05;;
42518;SDS011;28147;47.520;18.920;2023-07-20T05:01:19;4.25;;;2.10;;
42518;SDS011;28147;47.520;18.920;2023-07-20T05:03:45;4.20;;;2.42;;
42518;SDS011;28147;47.520;18.920;2023-07-20T05:06:10;5.00;;;2.10;;
42518;SDS011;28147;47.520;18.920;2023-07-20T05:08:36;5.10;;;1.80;;
42518;SDS011;28147;47.520;18.920;2023-07-20T05:11:01;3.85;;;2.00;;
42518;SDS011;28147;47.520;18.920;2023-07-20T05:13:27;5.13;;;2.22;;
42518;SDS011;28147;47.520;18.920;2023-07-20T05:15:52;4.13;;;1.92;;
42518;SDS011;28147;47.520;18.920;2023-07-20T05:18:18;4.43;;;2.08;;
42518;SDS011;28147;47.520;18.920;2023-07-20T05:20:48;6.05;;;2.17;;
42518;SDS011;28147;47.520;18.920;2023-07-20T05:23:16;5.82;;;2.40;;
42518;SDS011;28147;47.520;18.920;2023-07-20T05:25:42;4.35;;;2.10;;
42518;SDS011;28147;47.520;18.920;2023-07-20T05:28:08;5.45;;;2.10;;
42518;SDS011;28147;47.520;18.920;2023-07-20T05:30:34;3.72;;;2.00;;
42518;SDS011;28147;47.520;18.920;2023-07-20T05:32:59;4.75;;;2.08;;
42518;SDS011;28147;47.520;18.920;2023-07-20T05:35:25;3.72;;;2.00;;
42518;SDS011;28147;47.520;18.920;2023-07-20T05:37:51;5.07;;;2.33;;
42518;SDS011;28147;47.520;18.920;2023-07-20T05:40:16;5.22;;;2.33;;
42518;SDS011;28147;47.520;18.920;2023-07-20T05:42:46;4.88;;;2.17;;
42518;SDS011;28147;47.520;18.920;2023-07-20T05:45:12;3.53;;;1.55;;
42518;SDS011;28147;47.520;18.920;2023-07-20T05:47:39;4.38;;;2.33;;
42518;SDS011;28147;47.520;18.920;2023-07-20T05:50:05;9.80;;;2.50;;
42518;SDS011;28147;47.520;18.920;2023-07-20T05:52:30;3.92;;;2.30;;
42518;SDS011;28147;47.520;18.920;2023-07-20T05:54:57;6.07;;;2.75;;
42518;SDS011;28147;47.520;18.920;2023-07-20T05:57:23;5.00;;;2.35;;
42518;SDS011;28147;47.520;18.920;2023-07-20T05:59:48;4.75;;;2.35;;
42518;SDS011;28147;47.520;18.920;2023-07-20T06:02:14;6.05;;;2.30;;
42518;SDS011;28147;47.520;18.920;2023-07-20T06:04:39;5.22;;;1.88;;
42518;SDS011;28147;47.520;18.920;2023-07-20T06:07:05;3.53;;;2.03;;
42518;SDS011;28147;47.520;18.920;2023-07-20T06:09:32;3.55;;;2.08;;
42518;SDS011;28147;47.520;18.920;2023-07-20T06:11:57;4.40;;;2.10;;
42518;SDS011;28147;47.520;18.920;2023-07-20T06:14:24;3.90;;;2.15;;
42518;SDS011;28147;47.520;18.920;2023-07-20T06:16:49;4.88;;;2.42;;
42518;SDS011;28147;47.520;18.920;2023-07-20T06:19:30;4.25;;;2.40;;
42518;SDS011;28147;47.520;18.920;2023-07-20T06:21:56;6.57;;;2.40;;
42518;SDS011;28147;47.520;18.920;2023-07-20T06:24:21;4.53;;;2.38;;
42518;SDS011;28147;47.520;18.920;2023-07-20T06:26:46;4.68;;;2.83;;
42518;SDS011;28147;47.520;18.920;2023-07-20T06:29:12;4.80;;;2.75;;
42518;SDS011;28147;47.520;18.920;2023-07-20T06:31:37;3.85;;;2.10;;
42518;SDS011;28147;47.520;18.920;2023-07-20T06:34:03;4.78;;;2.88;;
42518;SDS011;28147;47.520;18.920;2023-07-20T06:36:28;4.93;;;2.42;;
42518;SDS011;28147;47.520;18.920;2023-07-20T06:38:55;5.75;;;2.50;;
42518;SDS011;28147;47.520;18.920;2023-07-20T06:41:21;4.57;;;2.35;;
42518;SDS011;28147;47.520;18.920;2023-07-20T06:43:46;5.07;;;2.58;;
42518;SDS011;28147;47.520;18.920;2023-07-20T06:46:12;6.30;;;2.63;;
42518;SDS011;28147;47.520;18.920;2023-07-20T06:48:37;3.97;;;2.10;;
42518;SDS011;28147;47.520;18.920;2023-07-20T06:51:03;5.05;;;2.25;;
42518;SDS011;28147;47.520;18.920;2023-07-20T06:53:28;5.32;;;2.50;;
42518;SDS011;28147;47.520;18.920;2023-07-20T06:55:54;3.97;;;2.50;;
42518;SDS011;28147;47.520;18.920;2023-07-20T06:58:22;4.65;;;2.13;;
42518;SDS011;28147;47.520;18.920;2023-07-20T07:00:48;4.78;;;2.67;;
42518;SDS011;28147;47.520;18.920;2023-07-20T07:03:13;4.15;;;1.98;;
42518;SDS011;28147;47.520;18.920;2023-07-20T07:05:39;6.07;;;2.20;;
42518;SDS011;28147;47.520;18.920;2023-07-20T07:08:04;4.93;;;2.40;;
42518;SDS011;28147;47.520;18.920;2023-07-20T07:10:30;2.55;;;1.48;;
42518;SDS011;28147;47.520;18.920;2023-07-20T07:12:57;4.72;;;2.50;;
42518;SDS011;28147;47.520;18.920;2023-07-20T07:15:22;6.95;;;2.55;;
42518;SDS011;28147;47.520;18.920;2023-07-20T07:17:48;4.57;;;2.45;;
42518;SDS011;28147;47.520;18.920;2023-07-20T07:20:13;8.07;;;2.97;;
42518;SDS011;28147;47.520;18.920;2023-07-20T07:22:38;4.03;;;1.88;;
42518;SDS011;28147;47.520;18.920;2023-07-20T07:25:04;5.53;;;2.50;;
42518;SDS011;28147;47.520;18.920;2023-07-20T07:27:30;4.18;;;2.17;;
42518;SDS011;28147;47.520;18.920;2023-07-20T07:29:55;4.88;;;2.13;;
42518;SDS011;28147;47.520;18.920;2023-07-20T07:32:21;5.82;;;2.53;;
42518;SDS011;28147;47.520;18.920;2023-07-20T07:34:46;3.20;;;1.90;;
42518;SDS011;28147;47.520;18.920;2023-07-20T07:37:15;3.72;;;1.90;;
42518;SDS011;28147;47.520;18.920;2023-07-20T07:39:42;5.30;;;2.50;;
42518;SDS011;28147;47.520;18.920;2023-07-20T07:42:07;3.50;;;1.70;;
42518;SDS011;28147;47.520;18.920;2023-07-20T07:44:33;3.63;;;2.30;;
42518;SDS011;28147;47.520;18.920;2023-07-20T07:46:58;7.57;;;2.45;;
42518;SDS011;28147;47.520;18.920;2023-07-20T07:49:23;4.53;;;2.22;;
42518;SDS011;28147;47.520;18.920;2023-07-20T07:51:49;6.95;;;2.17;;
42518;SDS011;28147;47.520;18.920;2023-07-20T07:54:16;4.18;;;2.47;;
42518;SDS011;28147;47.520;18.920;2023-07-20T07:56:42;4.20;;;2.20;;
42518;SDS011;28147;47.520;18.920;2023-07-20T07:59:07;5.15;;;2.63;;
42518;SDS011;28147;47.520;18.920;2023-07-20T08:01:33;2.85;;;1.83;;
42518;SDS011;28147;47.520;18.920;2023-07-20T08:03:58;4.90;;;2.03;;
42518;SDS011;28147;47.520;18.920;2023-07-20T08:06:24;3.60;;;2.00;;
42518;SDS011;28147;47.520;18.920;2023-07-20T08:08:49;2.97;;;1.77;;
42518;SDS011;28147;47.520;18.920;2023-07-20T08:11:15;3.20;;;1.80;;
42518;SDS011;28147;47.520;18.920;2023-07-20T08:13:41;4.22;;;2.05;;
42518;SDS011;28147;47.520;18.920;2023-07-20T08:16:06;5.22;;;2.50;;
42518;SDS011;28147;47.520;18.920;2023-07-20T08:18:32;5.00;;;2.10;;
42518;SDS011;28147;47.520;18.920;2023-07-20T08:20:57;4.30;;;2.05;;
42518;SDS011;28147;47.520;18.920;2023-07-20T08:23:23;5.32;;;2.45;;
42518;SDS011;28147;47.520;18.920;2023-07-20T08:25:48;4.68;;;1.90;;
42518;SDS011;28147;47.520;18.920;2023-07-20T08:28:14;3.38;;;1.80;;
42518;SDS011;28147;47.520;18.920;2023-07-20T08:30:41;3.05;;;1.83;;
42518;SDS011;28147;47.520;18.920;2023-07-20T08:33:08;3.33;;;1.90;;
42518;SDS011;28147;47.520;18.920;2023-07-20T08:35:35;7.63;;;2.17;;
42518;SDS011;28147;47.520;18.920;2023-07-20T08:38:00;6.00;;;1.90;;
42518;SDS011;28147;47.520;18.920;2023-07-20T08:40:26;4.88;;;1.98;;
42518;SDS011;28147;47.520;18.920;2023-07-20T08:42:52;2.67;;;1.80;;
42518;SDS011;28147;47.520;18.920;2023-07-20T08:45:20;3.28;;;1.98;;
42518;SDS011;28147;47.520;18.920;2023-07-20T08:47:47;2.90;;;1.58;;
42518;SDS011;28147;47.520;18.920;2023-07-20T08:50:15;2.45;;;1.40;;
42518;SDS011;28147;47.520;18.920;2023-07-20T08:52:41;3.25;;;1.70;;
42518;SDS011;28147;47.520;18.920;2023-07-20T08:55:07;2.78;;;1.67;;
42518;SDS011;28147;47.520;18.920;2023-07-20T08:57:33;6.88;;;1.50;;
42518;SDS011;28147;47.520;18.920;2023-07-20T09:00:00;3.58;;;1.48;;
42518;SDS011;28147;47.520;18.920;2023-07-20T09:02:29;5.80;;;1.90;;
42518;SDS011;28147;47.520;18.920;2023-07-20T09:05:00;3.03;;;1.80;;
42518;SDS011;28147;47.520;18.920;2023-07-20T09:07:25;5.65;;;2.25;;
42518;SDS011;28147;47.520;18.920;2023-07-20T09:09:51;3.05;;;1.58;;
42518;SDS011;28147;47.520;18.920;2023-07-20T09:12:17;3.53;;;1.52;;
42518;SDS011;28147;47.520;18.920;2023-07-20T09:14:43;5.13;;;1.73;;
42518;SDS011;28147;47.520;18.920;2023-07-20T09:17:12;4.22;;;1.73;;
42518;SDS011;28147;47.520;18.920;2023-07-20T09:19:45;4.93;;;1.50;;
42518;SDS011;28147;47.520;18.920;2023-07-20T09:22:11;5.97;;;2.25;;
42518;SDS011;28147;47.520;18.920;2023-07-20T09:24:36;3.88;;;1.85;;
42518;SDS011;28147;47.520;18.920;2023-07-20T09:27:01;3.13;;;1.80;;
42518;SDS011;28147;47.520;18.920;2023-07-20T09:29:30;3.17;;;1.58;;
42518;SDS011;28147;47.520;18.920;2023-07-20T09:31:59;4.22;;;2.13;;
42518;SDS011;28147;47.520;18.920;2023-07-20T09:34:26;4.30;;;1.70;;
42518;SDS011;28147;47.520;18.920;2023-07-20T09:36:52;3.38;;;1.63;;
42518;SDS011;28147;47.520;18.920;2023-07-20T09:39:17;3.85;;;1.95;;
42518;SDS011;28147;47.520;18.920;2023-07-20T09:41:43;2.95;;;1.75;;
42518;SDS011;28147;47.520;18.920;2023-07-20T09:44:09;3.05;;;1.63;;
42518;SDS011;28147;47.520;18.920;2023-07-20T09:46:48;3.00;;;1.60;;
42518;SDS011;28147;47.520;18.920;2023-07-20T09:49:19;3.30;;;1.67;;
42518;SDS011;28147;47.520;18.920;2023-07-20T09:51:45;3.67;;;1.52;;
42518;SDS011;28147;47.520;18.920;2023-07-20T09:54:11;4.10;;;1.67;;
42518;SDS011;28147;47.520;18.920;2023-07-20T09:56:38;2.60;;;1.63;;
42518;SDS011;28147;47.520;18.920;2023-07-20T09:59:05;4.25;;;1.75;;
42518;SDS011;28147;47.520;18.920;2023-07-20T10:01:31;5.32;;;2.30;;
42518;SDS011;28147;47.520;18.920;2023-07-20T10:03:59;3.70;;;1.73;;
42518;SDS011;28147;47.520;18.920;2023-07-20T10:06:28;4.85;;;1.95;;
42518;SDS011;28147;47.520;18.920;2023-07-20T10:08:59;3.50;;;1.65;;
42518;SDS011;28147;47.520;18.920;2023-07-20T10:11:28;2.38;;;1.48;;
42518;SDS011;28147;47.520;18.920;2023-07-20T10:13:56;3.47;;;1.88;;
42518;SDS011;28147;47.520;18.920;2023-07-20T10:16:26;3.17;;;1.70;;
42518;SDS011;28147;47.520;18.920;2023-07-20T10:22:03;4.40;;;1.80;;
42518;SDS011;28147;47.520;18.920;2023-07-20T10:24:35;3.08;;;1.90;;
42518;SDS011;28147;47.520;18.920;2023-07-20T10:27:02;5.65;;;1.50;;
42518;SDS011;28147;47.520;18.920;2023-07-20T10:29:27;2.75;;;1.52;;
42518;SDS011;28147;47.520;18.920;2023-07-20T10:31:54;3.65;;;1.88;;
42518;SDS011;28147;47.520;18.920;2023-07-20T10:34:23;3.70;;;1.75;;
42518;SDS011;28147;47.520;18.920;2023-07-20T10:36:49;3.25;;;1.33;;
42518;SDS011;28147;47.520;18.920;2023-07-20T10:39:23;4.30;;;1.98;;
42518;SDS011;28147;47.520;18.920;2023-07-20T10:41:50;3.17;;;1.35;;
42518;SDS011;28147;47.520;18.920;2023-07-20T10:44:15;2.58;;;1.42;;
42518;SDS011;28147;47.520;18.920;2023-07-20T10:49:11;3.55;;;1.40;;
42518;SDS011;28147;47.520;18.920;2023-07-20T10:54:09;2.78;;;1.42;;
42518;SDS011;28147;47.520;18.920;2023-07-20T10:56:58;3.80;;;1.63;;
42518;SDS011;28147;47.520;18.920;2023-07-20T10:59:49;3.55;;;1.40;;
42518;SDS011;28147;47.520;18.920;2023-07-20T11:02:17;2.78;;;1.35;;
42518;SDS011;28147;47.520;18.920;2023-07-20T11:04:44;4.68;;;1.48;;
42518;SDS011;28147;47.520;18.920;2023-07-20T11:07:10;2.42;;;1.13;;
42518;SDS011;28147;47.520;18.920;2023-07-20T11:09:41;3.72;;;1.85;;
42518;SDS011;28147;47.520;18.920;2023-07-20T11:12:14;2.80;;;1.38;;
42518;SDS011;28147;47.520;18.920;2023-07-20T11:14:41;3.28;;;1.80;;
42518;SDS011;28147;47.520;18.920;2023-07-20T11:17:12;3.28;;;1.77;;
42518;SDS011;28147;47.520;18.920;2023-07-20T11:19:38;3.97;;;1.40;;
42518;SDS011;28147;47.520;18.920;2023-07-20T11:22:05;3.20;;;1.33;;
42518;SDS011;28147;47.520;18.920;2023-07-20T11:24:36;2.55;;;1.23;;
42518;SDS011;28147;47.520;18.920;2023-07-20T11:29:29;3.45;;;1.25;;
42518;SDS011;28147;47.520;18.920;2023-07-20T11:31:55;3.40;;;1.50;;
42518;SDS011;28147;47.520;18.920;2023-07-20T11:34:21;3.88;;;1.35;;
42518;SDS011;28147;47.520;18.920;2023-07-20T11:36:48;2.58;;;1.27;;
42518;SDS011;28147;47.520;18.920;2023-07-20T11:39:14;2.75;;;1.30;;
42518;SDS011;28147;47.520;18.920;2023-07-20T11:41:51;3.75;;;2.38;;
42518;SDS011;28147;47.520;18.920;2023-07-20T11:44:18;2.40;;;1.25;;
42518;SDS011;28147;47.520;18.920;2023-07-20T11:46:46;5.57;;;1.27;;
42518;SDS011;28147;47.520;18.920;2023-07-20T11:49:11;2.70;;;1.40;;
42518;SDS011;28147;47.520;18.920;2023-07-20T11:51:37;3.47;;;1.52;;
42518;SDS011;28147;47.520;18.920;2023-07-20T11:54:05;2.47;;;1.00;;
42518;SDS011;28147;47.520;18.920;2023-07-20T11:56:32;2.63;;;1.30;;
42518;SDS011;28147;47.520;18.920;2023-07-20T11:58:58;3.05;;;1.35;;
42518;SDS011;28147;47.520;18.920;2023-07-20T12:01:26;4.07;;;1.92;;
42518;SDS011;28147;47.520;18.920;2023-07-20T12:03:59;4.22;;;1.45;;
42518;SDS011;28147;47.520;18.920;2023-07-20T12:06:27;2.05;;;1.30;;
42518;SDS011;28147;47.520;18.920;2023-07-20T12:08:56;4.15;;;1.35;;
42518;SDS011;28147;47.520;18.920;2023-07-20T12:11:32;3.22;;;1.38;;
42518;SDS011;28147;47.520;18.920;2023-07-20T12:14:04;4.38;;;1.48;;
42518;SDS011;28147;47.520;18.920;2023-07-20T12:16:32;5.47;;;1.40;;
42518;SDS011;28147;47.520;18.920;2023-07-20T12:21:30;3.75;;;1.60;;
42518;SDS011;28147;47.520;18.920;2023-07-20T12:23:57;4.13;;;1.85;;
42518;SDS011;28147;47.520;18.920;2023-07-20T12:26:23;3.17;;;1.48;;
42518;SDS011;28147;47.520;18.920;2023-07-20T12:28:50;4.07;;;1.63;;
42518;SDS011;28147;47.520;18.920;2023-07-20T12:31:15;3.40;;;1.38;;
42518;SDS011;28147;47.520;18.920;2023-07-20T12:33:41;6.95;;;1.67;;
42518;SDS011;28147;47.520;18.920;2023-07-20T12:36:07;3.75;;;1.40;;
42518;SDS011;28147;47.520;18.920;2023-07-20T12:38:33;4.32;;;1.25;;
42518;SDS011;28147;47.520;18.920;2023-07-20T12:41:02;3.13;;;1.45;;
42518;SDS011;28147;47.520;18.920;2023-07-20T12:43:28;2.92;;;1.30;;
42518;SDS011;28147;47.520;18.920;2023-07-20T12:45:54;2.20;;;1.20;;
42518;SDS011;28147;47.520;18.920;2023-07-20T12:48:20;3.30;;;1.08;;
42518;SDS011;28147;47.520;18.920;2023-07-20T12:50:46;2.45;;;1.20;;
42518;SDS011;28147;47.520;18.920;2023-07-20T12:53:14;3.75;;;1.20;;
42518;SDS011;28147;47.520;18.920;2023-07-20T12:55:40;2.55;;;1.10;;
42518;SDS011;28147;47.520;18.920;2023-07-20T12:58:06;2.35;;;1.20;;
42518;SDS011;28147;47.520;18.920;2023-07-20T13:00:32;2.17;;;1.20;;
42518;SDS011;28147;47.520;18.920;2023-07-20T13:02:58;2.85;;;1.42;;
42518;SDS011;28147;47.520;18.920;2023-07-20T13:05:23;2.47;;;1.27;;
42518;SDS011;28147;47.520;18.920;2023-07-20T13:07:49;2.15;;;1.23;;
42518;SDS011;28147;47.520;18.920;2023-07-20T13:10:14;2.13;;;1.00;;
42518;SDS011;28147;47.520;18.920;2023-07-20T13:12:40;2.78;;;1.30;;
42518;SDS011;28147;47.520;18.920;2023-07-20T13:15:06;3.50;;;1.52;;
42518;SDS011;28147;47.520;18.920;2023-07-20T13:17:33;3.38;;;1.40;;
42518;SDS011;28147;47.520;18.920;2023-07-20T13:20:03;2.22;;;1.35;;
42518;SDS011;28147;47.520;18.920;2023-07-20T13:22:30;2.97;;;1.30;;
42518;SDS011;28147;47.520;18.920;2023-07-20T13:24:55;4.85;;;1.70;;
42518;SDS011;28147;47.520;18.920;2023-07-20T13:27:21;2.28;;;1.20;;
42518;SDS011;28147;47.520;18.920;2023-07-20T13:29:47;2.20;;;1.27;;
42518;SDS011;28147;47.520;18.920;2023-07-20T13:32:13;2.97;;;1.20;;
42518;SDS011;28147;47.520;18.920;2023-07-20T13:34:40;2.42;;;1.20;;
42518;SDS011;28147;47.520;18.920;2023-07-20T13:37:06;3.55;;;1.17;;
42518;SDS011;28147;47.520;18.920;2023-07-20T13:39:31;2.63;;;1.20;;
42518;SDS011;28147;47.520;18.920;2023-07-20T13:41:57;3.70;;;1.35;;
42518;SDS011;28147;47.520;18.920;2023-07-20T13:44:22;3.10;;;1.52;;
42518;SDS011;28147;47.520;18.920;2023-07-20T13:46:48;2.10;;;1.25;;
42518;SDS011;28147;47.520;18.920;2023-07-20T13:49:14;4.63;;;1.20;;
42518;SDS011;28147;47.520;18.920;2023-07-20T13:51:43;2.45;;;1.17;;
42518;SDS011;28147;47.520;18.920;2023-07-20T13:54:09;3.85;;;1.23;;
42518;SDS011;28147;47.520;18.920;2023-07-20T13:56:34;2.22;;;1.15;;
42518;SDS011;28147;47.520;18.920;2023-07-20T13:59:00;4.22;;;1.60;;
42518;SDS011;28147;47.520;18.920;2023-07-20T14:01:26;3.38;;;1.63;;
42518;SDS011;28147;47.520;18.920;2023-07-20T14:03:53;2.28;;;1.13;;
42518;SDS011;28147;47.520;18.920;2023-07-20T14:06:19;1.88;;;1.20;;
42518;SDS011;28147;47.520;18.920;2023-07-20T14:08:45;2.90;;;1.30;;
42518;SDS011;28147;47.520;18.920;2023-07-20T14:11:12;4.13;;;1.20;;
42518;SDS011;28147;47.520;18.920;2023-07-20T14:13:38;3.00;;;1.70;;
42518;SDS011;28147;47.520;18.920;2023-07-20T14:16:04;2.00;;;1.33;;
42518;SDS011;28147;47.520;18.920;2023-07-20T14:18:30;2.35;;;1.15;;
42518;SDS011;28147;47.520;18.920;2023-07-20T14:20:55;4.78;;;1.67;;
42518;SDS011;28147;47.520;18.920;2023-07-20T14:23:20;3.38;;;1.30;;
42518;SDS011;28147;47.520;18.920;2023-07-20T14:25:46;2.15;;;1.23;;
42518;SDS011;28147;47.520;18.920;2023-07-20T14:28:13;2.63;;;1.35;;
42518;SDS011;28147;47.520;18.920;2023-07-20T14:30:38;5.32;;;1.40;;
42518;SDS011;28147;47.520;18.920;2023-07-20T14:33:04;1.75;;;0.98;;
42518;SDS011;28147;47.520;18.920;2023-07-20T14:35:29;1.95;;;1.00;;
42518;SDS011;28147;47.520;18.920;2023-07-20T14:37:55;1.90;;;1.13;;
42518;SDS011;28147;47.520;18.920;2023-07-20T14:40:20;3.08;;;1.85;;
42518;SDS011;28147;47.520;18.920;2023-07-20T14:42:45;2.22;;;1.30;;
42518;SDS011;28147;47.520;18.920;2023-07-20T14:45:11;2.13;;;1.20;;
42518;SDS011;28147;47.520;18.920;2023-07-20T14:47:36;4.53;;;1.38;;
42518;SDS011;28147;47.520;18.920;2023-07-20T14:50:02;1.80;;;1.02;;
42518;SDS011;28147;47.520;18.920;2023-07-20T14:52:28;2.97;;;1.13;;